sensor_id;sensor_type;location;lat;lon;timestamp;temperature;humidity
1377;DHT22;682;52.502;13.488;2023-01-13T00:00:16;9.30;1.00
1377;DHT22;682;52.502;13.488;2023-01-13T00:02:48;9.40;1.00
1377;DHT22;682;52.502;13.488;2023-01-13T00:05:18;9.30;1.00
1377;DHT22;682;52.502;13.488;2023-01-13T00:07:46;9.30;1.00
1377;DHT22;682;52.502;13.488;2023-01-13T00:10:36;9.30;1.00
1377;DHT22;682;52.502;13.488;2023-01-13T00:13:19;9.40;1.00
1377;DHT22;682;52.502;13.488;2023-01-13T00:16:02;9.40;1.00
1377;DHT22;682;52.502;13.488;2023-01-13T00:18:39;9.40;1.00
1377;DHT22;682;52.502;13.488;2023-01-13T00:21:22;9.40;1.00
1377;DHT22;682;52.502;13.488;2023-01-13T00:23:58;9.40;1.00
1377;DHT22;682;52.502;13.488;2023-01-13T00:26:27;9.40;1.00
1377;DHT22;682;52.502;13.488;2023-01-13T00:29:02;9.40;1.00
1377;DHT22;682;52.502;13.488;2023-01-13T00:31:41;9.40;1.00
1377;DHT22;682;52.502;13.488;2023-01-13T00:34:20;9.40;1.00
1377;DHT22;682;52.502;13.488;2023-01-13T00:36:49;9.40;1.00
1377;DHT22;682;52.502;13.488;2023-01-13T00:39:21;9.40;1.00
1377;DHT22;682;52.502;13.488;2023-01-13T00:41:59;9.40;1.00
1377;DHT22;682;52.502;13.488;2023-01-13T00:44:45;9.40;1.00
1377;DHT22;682;52.502;13.488;2023-01-13T00:47:15;9.40;1.00
1377;DHT22;682;52.502;13.488;2023-01-13T00:49:48;9.40;1.00
1377;DHT22;682;52.502;13.488;2023-01-13T00:52:23;9.40;1.00
1377;DHT22;682;52.502;13.488;2023-01-13T00:55:12;9.30;1.00
1377;DHT22;682;52.502;13.488;2023-01-13T00:57:54;9.40;1.00
1377;DHT22;682;52.502;13.488;2023-01-13T01:00:32;9.40;1.00
1377;DHT22;682;52.502;13.488;2023-01-13T01:03:18;9.40;1.00
1377;DHT22;682;52.502;13.488;2023-01-13T01:05:46;9.40;1.00
1377;DHT22;682;52.502;13.488;2023-01-13T01:08:32;9.40;1.00
1377;DHT22;682;52.502;13.488;2023-01-13T01:11:10;9.40;1.00
1377;DHT22;682;52.502;13.488;2023-01-13T01:13:53;9.50;1.00
1377;DHT22;682;52.502;13.488;2023-01-13T01:16:40;9.50;1.00
1377;DHT22;682;52.502;13.488;2023-01-13T01:19:09;9.50;1.00
1377;DHT22;682;52.502;13.488;2023-01-13T01:21:38;9.50;1.00
1377;DHT22;682;52.502;13.488;2023-01-13T01:24:06;9.50;1.00
1377;DHT22;682;52.502;13.488;2023-01-13T01:26:39;9.50;1.00
1377;DHT22;682;52.502;13.488;2023-01-13T01:29:12;9.60;1.00
1377;DHT22;682;52.502;13.488;2023-01-13T01:31:49;9.60;1.00
1377;DHT22;682;52.502;13.488;2023-01-13T01:34:18;9.60;1.00
1377;DHT22;682;52.502;13.488;2023-01-13T01:36:48;9.60;1.00
1377;DHT22;682;52.502;13.488;2023-01-13T01:39:21;9.60;1.00
1377;DHT22;682;52.502;13.488;2023-01-13T01:41:50;9.60;1.00
1377;DHT22;682;52.502;13.488;2023-01-13T01:45:09;9.60;1.00
1377;DHT22;682;52.502;13.488;2023-01-13T01:47:50;9.60;1.00
1377;DHT22;682;52.502;13.488;2023-01-13T01:50:30;9.70;1.00
1377;DHT22;682;52.502;13.488;2023-01-13T01:53:08;9.70;1.00
1377;DHT22;682;52.502;13.488;2023-01-13T01:55:39;9.70;1.00
1377;DHT22;682;52.502;13.488;2023-01-13T01:58:29;9.70;1.00
1377;DHT22;682;52.502;13.488;2023-01-13T02:00:58;9.70;1.00
1377;DHT22;682;52.502;13.488;2023-01-13T02:03:27;9.80;1.00
1377;DHT22;682;52.502;13.488;2023-01-13T02:06:16;9.80;1.00
1377;DHT22;682;52.502;13.488;2023-01-13T02:08:51;9.80;1.00
1377;DHT22;682;52.502;13.488;2023-01-13T02:11:31;9.90;1.00
1377;DHT22;682;52.502;13.488;2023-01-13T02:14:28;9.90;1.00
1377;DHT22;682;52.502;13.488;2023-01-13T02:17:24;9.90;1.00
1377;DHT22;682;52.502;13.488;2023-01-13T02:27:22;10.20;1.00
1377;DHT22;682;52.502;13.488;2023-01-13T02:30:16;10.20;1.00
1377;DHT22;682;52.502;13.488;2023-01-13T02:33:30;10.20;1.00
1377;DHT22;682;52.502;13.488;2023-01-13T02:36:14;10.20;1.00
1377;DHT22;682;52.502;13.488;2023-01-13T02:38:59;10.20;1.00
1377;DHT22;682;52.502;13.488;2023-01-13T02:41:43;10.20;1.00
1377;DHT22;682;52.502;13.488;2023-01-13T02:44:34;10.20;1.00
1377;DHT22;682;52.502;13.488;2023-01-13T02:47:13;10.20;1.00
1377;DHT22;682;52.502;13.488;2023-01-13T02:49:50;10.20;1.00
1377;DHT22;682;52.502;13.488;2023-01-13T02:52:40;10.20;1.00
1377;DHT22;682;52.502;13.488;2023-01-13T02:55:22;10.20;1.00
1377;DHT22;682;52.502;13.488;2023-01-13T02:57:59;10.20;1.00
1377;DHT22;682;52.502;13.488;2023-01-13T03:00:28;10.20;1.00
1377;DHT22;682;52.502;13.488;2023-01-13T03:03:15;10.30;1.00
1377;DHT22;682;52.502;13.488;2023-01-13T03:05:54;10.30;1.00
1377;DHT22;682;52.502;13.488;2023-01-13T03:08:41;10.30;1.00
1377;DHT22;682;52.502;13.488;2023-01-13T03:11:19;10.30;1.00
1377;DHT22;682;52.502;13.488;2023-01-13T03:14:10;10.20;1.00
1377;DHT22;682;52.502;13.488;2023-01-13T03:17:03;10.20;1.00
1377;DHT22;682;52.502;13.488;2023-01-13T03:22:41;10.20;1.00
1377;DHT22;682;52.502;13.488;2023-01-13T03:25:30;10.20;1.00
1377;DHT22;682;52.502;13.488;2023-01-13T03:28:19;10.20;1.00
1377;DHT22;682;52.502;13.488;2023-01-13T03:30:58;10.20;1.00
1377;DHT22;682;52.502;13.488;2023-01-13T03:33:42;10.20;1.00
1377;DHT22;682;52.502;13.488;2023-01-13T03:36:17;10.20;1.00
1377;DHT22;682;52.502;13.488;2023-01-13T03:39:10;10.20;1.00
1377;DHT22;682;52.502;13.488;2023-01-13T03:41:43;10.20;1.00
1377;DHT22;682;52.502;13.488;2023-01-13T03:44:31;10.20;1.00
1377;DHT22;682;52.502;13.488;2023-01-13T03:47:11;10.20;1.00
1377;DHT22;682;52.502;13.488;2023-01-13T03:50:02;10.20;1.00
1377;DHT22;682;52.502;13.488;2023-01-13T03:52:44;10.20;1.00
1377;DHT22;682;52.502;13.488;2023-01-13T03:55:32;10.10;1.00
1377;DHT22;682;52.502;13.488;2023-01-13T03:58:10;10.10;1.00
1377;DHT22;682;52.502;13.488;2023-01-13T04:01:19;10.10;1.00
1377;DHT22;682;52.502;13.488;2023-01-13T04:04:00;10.10;1.00
1377;DHT22;682;52.502;13.488;2023-01-13T04:06:38;10.10;1.00
1377;DHT22;682;52.502;13.488;2023-01-13T04:09:21;10.10;1.00
1377;DHT22;682;52.502;13.488;2023-01-13T04:12:10;10.00;1.00
1377;DHT22;682;52.502;13.488;2023-01-13T04:15:01;10.00;1.00
1377;DHT22;682;52.502;13.488;2023-01-13T04:17:42;10.00;1.00
1377;DHT22;682;52.502;13.488;2023-01-13T04:20:35;10.10;1.00
1377;DHT22;682;52.502;13.488;2023-01-13T04:23:12;10.10;1.00
1377;DHT22;682;52.502;13.488;2023-01-13T04:25:43;10.10;1.00
1377;DHT22;682;52.502;13.488;2023-01-13T04:28:13;10.10;1.00
1377;DHT22;682;52.502;13.488;2023-01-13T04:30:51;10.10;1.00
1377;DHT22;682;52.502;13.488;2023-01-13T04:33:21;10.10;1.00
1377;DHT22;682;52.502;13.488;2023-01-13T04:35:51;10.10;1.00
1377;DHT22;682;52.502;13.488;2023-01-13T04:39:14;10.10;1.00
1377;DHT22;682;52.502;13.488;2023-01-13T04:41:31;10.10;1.00
1377;DHT22;682;52.502;13.488;2023-01-13T04:44:31;10.00;1.00
1377;DHT22;682;52.502;13.488;2023-01-13T04:47:01;10.00;1.00
1377;DHT22;682;52.502;13.488;2023-01-13T04:49:32;10.00;1.00
1377;DHT22;682;52.502;13.488;2023-01-13T04:52:13;10.00;1.00
1377;DHT22;682;52.502;13.488;2023-01-13T04:54:59;9.90;1.00
1377;DHT22;682;52.502;13.488;2023-01-13T04:57:32;9.90;1.00
1377;DHT22;682;52.502;13.488;2023-01-13T05:04:01;9.90;1.00
1377;DHT22;682;52.502;13.488;2023-01-13T05:12:59;9.90;1.00
1377;DHT22;682;52.502;13.488;2023-01-13T05:17:29;10.00;1.00
1377;DHT22;682;52.502;13.488;2023-01-13T05:27:00;10.20;1.00
1377;DHT22;682;52.502;13.488;2023-01-13T05:30:12;10.30;1.00
1377;DHT22;682;52.502;13.488;2023-01-13T05:47:22;9.90;1.00
1377;DHT22;682;52.502;13.488;2023-01-13T06:32:31;10.50;1.00
1377;DHT22;682;52.502;13.488;2023-01-13T06:35:28;10.60;1.00
1377;DHT22;682;52.502;13.488;2023-01-13T06:38:17;10.50;1.00
1377;DHT22;682;52.502;13.488;2023-01-13T06:41:14;10.60;1.00
1377;DHT22;682;52.502;13.488;2023-01-13T06:43:54;10.50;1.00
1377;DHT22;682;52.502;13.488;2023-01-13T06:46:35;10.50;1.00
1377;DHT22;682;52.502;13.488;2023-01-13T06:49:06;10.60;1.00
1377;DHT22;682;52.502;13.488;2023-01-13T06:51:36;10.60;1.00
1377;DHT22;682;52.502;13.488;2023-01-13T06:54:04;10.60;1.00
1377;DHT22;682;52.502;13.488;2023-01-13T06:56:31;10.70;1.00
1377;DHT22;682;52.502;13.488;2023-01-13T06:59:00;10.70;1.00
1377;DHT22;682;52.502;13.488;2023-01-13T07:01:30;10.70;1.00
1377;DHT22;682;52.502;13.488;2023-01-13T07:04:00;10.60;1.00
1377;DHT22;682;52.502;13.488;2023-01-13T07:06:28;10.50;1.00
1377;DHT22;682;52.502;13.488;2023-01-13T07:08:56;10.50;1.00
1377;DHT22;682;52.502;13.488;2023-01-13T07:11:24;10.40;1.00
1377;DHT22;682;52.502;13.488;2023-01-13T07:13:56;10.40;1.00
1377;DHT22;682;52.502;13.488;2023-01-13T07:16:42;10.40;1.00
1377;DHT22;682;52.502;13.488;2023-01-13T07:19:15;10.40;1.00
1377;DHT22;682;52.502;13.488;2023-01-13T07:21:52;10.40;1.00
1377;DHT22;682;52.502;13.488;2023-01-13T07:24:24;10.40;1.00
1377;DHT22;682;52.502;13.488;2023-01-13T07:27:01;10.40;1.00
1377;DHT22;682;52.502;13.488;2023-01-13T07:29:31;10.50;1.00
1377;DHT22;682;52.502;13.488;2023-01-13T07:31:58;10.50;1.00
1377;DHT22;682;52.502;13.488;2023-01-13T07:34:26;10.40;1.00
1377;DHT22;682;52.502;13.488;2023-01-13T07:37:06;10.40;1.00
1377;DHT22;682;52.502;13.488;2023-01-13T07:39:35;10.40;1.00
1377;DHT22;682;52.502;13.488;2023-01-13T07:42:08;10.30;1.00
1377;DHT22;682;52.502;13.488;2023-01-13T07:44:54;10.40;1.00
1377;DHT22;682;52.502;13.488;2023-01-13T07:47:25;10.40;1.00
1377;DHT22;682;52.502;13.488;2023-01-13T07:49:56;10.40;1.00
1377;DHT22;682;52.502;13.488;2023-01-13T07:52:25;10.40;1.00
1377;DHT22;682;52.502;13.488;2023-01-13T07:54:55;10.40;1.00
1377;DHT22;682;52.502;13.488;2023-01-13T07:57:25;10.50;1.00
1377;DHT22;682;52.502;13.488;2023-01-13T07:59:55;10.50;1.00
1377;DHT22;682;52.502;13.488;2023-01-13T08:02:27;10.40;1.00
1377;DHT22;682;52.502;13.488;2023-01-13T08:05:02;10.50;1.00
1377;DHT22;682;52.502;13.488;2023-01-13T08:07:43;10.50;1.00
1377;DHT22;682;52.502;13.488;2023-01-13T08:14:24;10.50;1.00
1377;DHT22;682;52.502;13.488;2023-01-13T08:17:24;10.50;1.00
1377;DHT22;682;52.502;13.488;2023-01-13T08:19:51;10.50;1.00
1377;DHT22;682;52.502;13.488;2023-01-13T08:22:18;10.50;1.00
1377;DHT22;682;52.502;13.488;2023-01-13T08:24:46;10.60;1.00
1377;DHT22;682;52.502;13.488;2023-01-13T08:27:13;10.60;1.00
1377;DHT22;682;52.502;13.488;2023-01-13T08:29:40;10.50;1.00
1377;DHT22;682;52.502;13.488;2023-01-13T08:32:08;10.50;1.00
1377;DHT22;682;52.502;13.488;2023-01-13T08:34:37;10.60;1.00
1377;DHT22;682;52.502;13.488;2023-01-13T08:37:11;10.50;1.00
1377;DHT22;682;52.502;13.488;2023-01-13T08:39:43;10.50;1.00
1377;DHT22;682;52.502;13.488;2023-01-13T08:42:15;10.40;1.00
1377;DHT22;682;52.502;13.488;2023-01-13T08:44:42;10.40;1.00
1377;DHT22;682;52.502;13.488;2023-01-13T08:47:09;10.50;1.00
1377;DHT22;682;52.502;13.488;2023-01-13T08:49:36;10.60;1.00
1377;DHT22;682;52.502;13.488;2023-01-13T08:52:03;10.60;1.00
1377;DHT22;682;52.502;13.488;2023-01-13T08:54:30;10.50;1.00
1377;DHT22;682;52.502;13.488;2023-01-13T08:56:57;10.60;1.00
1377;DHT22;682;52.502;13.488;2023-01-13T08:59:25;10.50;1.00
1377;DHT22;682;52.502;13.488;2023-01-13T09:01:52;10.50;1.00
1377;DHT22;682;52.502;13.488;2023-01-13T09:04:21;10.50;1.00
1377;DHT22;682;52.502;13.488;2023-01-13T09:06:49;10.40;1.00
1377;DHT22;682;52.502;13.488;2023-01-13T09:09:16;10.40;1.00
1377;DHT22;682;52.502;13.488;2023-01-13T09:11:45;10.40;1.00
1377;DHT22;682;52.502;13.488;2023-01-13T09:14:33;10.30;1.00
1377;DHT22;682;52.502;13.488;2023-01-13T09:17:01;10.40;1.00
1377;DHT22;682;52.502;13.488;2023-01-13T09:19:29;10.30;1.00
1377;DHT22;682;52.502;13.488;2023-01-13T09:21:56;10.20;1.00
1377;DHT22;682;52.502;13.488;2023-01-13T09:24:24;10.10;1.00
1377;DHT22;682;52.502;13.488;2023-01-13T09:26:51;10.10;1.00
1377;DHT22;682;52.502;13.488;2023-01-13T09:29:18;10.10;1.00
1377;DHT22;682;52.502;13.488;2023-01-13T09:31:47;10.10;1.00
1377;DHT22;682;52.502;13.488;2023-01-13T09:36:59;10.20;1.00
1377;DHT22;682;52.502;13.488;2023-01-13T09:39:51;10.30;1.00
1377;DHT22;682;52.502;13.488;2023-01-13T09:42:56;10.30;1.00
1377;DHT22;682;52.502;13.488;2023-01-13T09:45:51;10.40;1.00
1377;DHT22;682;52.502;13.488;2023-01-13T09:51:57;10.60;1.00
1377;DHT22;682;52.502;13.488;2023-01-13T09:55:08;10.50;1.00
1377;DHT22;682;52.502;13.488;2023-01-13T09:58:09;10.40;1.00
1377;DHT22;682;52.502;13.488;2023-01-13T10:01:28;10.40;1.00
1377;DHT22;682;52.502;13.488;2023-01-13T10:04:27;10.30;1.00
1377;DHT22;682;52.502;13.488;2023-01-13T10:07:36;10.20;1.00
1377;DHT22;682;52.502;13.488;2023-01-13T10:10:28;10.30;1.00
1377;DHT22;682;52.502;13.488;2023-01-13T10:13:18;10.10;1.00
1377;DHT22;682;52.502;13.488;2023-01-13T10:17:10;10.00;1.00
1377;DHT22;682;52.502;13.488;2023-01-13T10:25:59;9.90;1.00
1377;DHT22;682;52.502;13.488;2023-01-13T10:28:34;10.20;1.00
1377;DHT22;682;52.502;13.488;2023-01-13T10:31:09;10.80;1.00
1377;DHT22;682;52.502;13.488;2023-01-13T10:33:37;11.30;1.00
1377;DHT22;682;52.502;13.488;2023-01-13T10:36:13;11.20;1.00
1377;DHT22;682;52.502;13.488;2023-01-13T10:38:42;11.10;1.00
1377;DHT22;682;52.502;13.488;2023-01-13T10:41:22;10.90;1.00
1377;DHT22;682;52.502;13.488;2023-01-13T10:43:58;10.60;1.00
1377;DHT22;682;52.502;13.488;2023-01-13T10:46:26;10.60;1.00
1377;DHT22;682;52.502;13.488;2023-01-13T10:48:54;10.50;1.00
1377;DHT22;682;52.502;13.488;2023-01-13T10:51:24;10.40;1.00
1377;DHT22;682;52.502;13.488;2023-01-13T10:53:56;10.40;1.00
1377;DHT22;682;52.502;13.488;2023-01-13T10:56:29;10.50;1.00
1377;DHT22;682;52.502;13.488;2023-01-13T10:59:14;10.70;1.00
1377;DHT22;682;52.502;13.488;2023-01-13T11:01:58;10.60;1.00
1377;DHT22;682;52.502;13.488;2023-01-13T11:04:30;10.80;1.00
1377;DHT22;682;52.502;13.488;2023-01-13T11:06:58;10.80;1.00
1377;DHT22;682;52.502;13.488;2023-01-13T11:09:28;10.70;1.00
1377;DHT22;682;52.502;13.488;2023-01-13T11:11:59;10.80;1.00
1377;DHT22;682;52.502;13.488;2023-01-13T11:14:33;10.90;1.00
1377;DHT22;682;52.502;13.488;2023-01-13T11:17:29;11.00;1.00
1377;DHT22;682;52.502;13.488;2023-01-13T11:20:04;10.80;1.00
1377;DHT22;682;52.502;13.488;2023-01-13T11:22:36;10.90;1.00
1377;DHT22;682;52.502;13.488;2023-01-13T11:25:09;11.10;1.00
1377;DHT22;682;52.502;13.488;2023-01-13T11:27:45;11.30;1.00
1377;DHT22;682;52.502;13.488;2023-01-13T11:30:23;12.30;1.00
1377;DHT22;682;52.502;13.488;2023-01-13T11:33:14;13.60;1.00
1377;DHT22;682;52.502;13.488;2023-01-13T11:35:55;14.60;1.00
1377;DHT22;682;52.502;13.488;2023-01-13T11:38:30;15.20;1.00
1377;DHT22;682;52.502;13.488;2023-01-13T11:41:05;15.60;1.00
1377;DHT22;682;52.502;13.488;2023-01-13T11:43:41;16.20;1.00
1377;DHT22;682;52.502;13.488;2023-01-13T11:46:10;16.10;1.00
1377;DHT22;682;52.502;13.488;2023-01-13T11:48:41;15.90;1.00
1377;DHT22;682;52.502;13.488;2023-01-13T11:51:21;15.90;1.00
1377;DHT22;682;52.502;13.488;2023-01-13T11:54:17;15.60;1.00
1377;DHT22;682;52.502;13.488;2023-01-13T11:59:53;16.90;1.00
1377;DHT22;682;52.502;13.488;2023-01-13T12:02:43;17.00;1.00
1377;DHT22;682;52.502;13.488;2023-01-13T12:05:19;16.20;1.00
1377;DHT22;682;52.502;13.488;2023-01-13T12:07:58;16.50;1.00
1377;DHT22;682;52.502;13.488;2023-01-13T12:10:49;17.30;1.00
1377;DHT22;682;52.502;13.488;2023-01-13T12:13:25;17.00;1.00
1377;DHT22;682;52.502;13.488;2023-01-13T12:16:10;16.70;1.00
1377;DHT22;682;52.502;13.488;2023-01-13T12:21:54;17.90;1.00
1377;DHT22;682;52.502;13.488;2023-01-13T12:24:25;17.10;1.00
1377;DHT22;682;52.502;13.488;2023-01-13T12:26:56;16.70;1.00
1377;DHT22;682;52.502;13.488;2023-01-13T12:29:30;16.80;1.00
1377;DHT22;682;52.502;13.488;2023-01-13T12:32:02;16.40;1.00
1377;DHT22;682;52.502;13.488;2023-01-13T12:34:48;16.50;1.00
1377;DHT22;682;52.502;13.488;2023-01-13T12:37:23;17.20;1.00
1377;DHT22;682;52.502;13.488;2023-01-13T12:40:20;17.10;1.00
1377;DHT22;682;52.502;13.488;2023-01-13T12:52:03;16.90;1.00
1377;DHT22;682;52.502;13.488;2023-01-13T13:22:48;13.00;1.00
1377;DHT22;682;52.502;13.488;2023-01-13T13:59:55;11.20;1.00
1377;DHT22;682;52.502;13.488;2023-01-13T14:08:17;11.00;1.00
1377;DHT22;682;52.502;13.488;2023-01-13T14:10:54;10.90;1.00
1377;DHT22;682;52.502;13.488;2023-01-13T14:13:30;10.80;1.00
1377;DHT22;682;52.502;13.488;2023-01-13T14:19:35;10.70;1.00
1377;DHT22;682;52.502;13.488;2023-01-13T14:22:15;10.60;1.00
1377;DHT22;682;52.502;13.488;2023-01-13T14:24:49;10.60;1.00
1377;DHT22;682;52.502;13.488;2023-01-13T14:27:36;10.70;1.00
1377;DHT22;682;52.502;13.488;2023-01-13T14:30:40;10.70;1.00
1377;DHT22;682;52.502;13.488;2023-01-13T14:33:20;10.70;1.00
1377;DHT22;682;52.502;13.488;2023-01-13T14:46:44;10.60;1.00
1377;DHT22;682;52.502;13.488;2023-01-13T14:49:34;10.70;1.00
1377;DHT22;682;52.502;13.488;2023-01-13T14:52:45;10.60;1.00
1377;DHT22;682;52.502;13.488;2023-01-13T14:59:29;10.60;1.00
1377;DHT22;682;52.502;13.488;2023-01-13T15:14:17;10.50;1.00
1377;DHT22;682;52.502;13.488;2023-01-13T15:16:48;10.40;1.00
1377;DHT22;682;52.502;13.488;2023-01-13T15:19:53;10.30;1.00
1377;DHT22;682;52.502;13.488;2023-01-13T15:23:14;10.30;1.00
1377;DHT22;682;52.502;13.488;2023-01-13T15:25:55;10.20;1.00
1377;DHT22;682;52.502;13.488;2023-01-13T16:06:41;9.60;1.00
1377;DHT22;682;52.502;13.488;2023-01-13T16:11:03;9.60;1.00
1377;DHT22;682;52.502;13.488;2023-01-13T18:17:26;8.40;1.00
1377;DHT22;682;52.502;13.488;2023-01-13T18:27:10;8.60;1.00
1377;DHT22;682;52.502;13.488;2023-01-13T18:30:55;8.70;1.00
1377;DHT22;682;52.502;13.488;2023-01-13T20:28:02;8.80;1.00
1377;DHT22;682;52.502;13.488;2023-01-13T20:58:22;8.90;1.00
1377;DHT22;682;52.502;13.488;2023-01-13T21:02:41;8.90;1.00
1377;DHT22;682;52.502;13.488;2023-01-13T21:12:19;8.80;1.00
1377;DHT22;682;52.502;13.488;2023-01-13T22:05:31;8.60;1.00
1377;DHT22;682;52.502;13.488;2023-01-13T22:47:13;8.30;1.00
1377;DHT22;682;52.502;13.488;2023-01-13T22:49:40;8.20;1.00
1377;DHT22;682;52.502;13.488;2023-01-13T22:52:12;8.20;1.00
1377;DHT22;682;52.502;13.488;2023-01-13T22:58:46;8.10;1.00
1377;DHT22;682;52.502;13.488;2023-01-13T23:04:02;8.20;1.00
1377;DHT22;682;52.502;13.488;2023-01-13T23:06:35;8.20;1.00
1377;DHT22;682;52.502;13.488;2023-01-13T23:16:18;8.10;1.00
1377;DHT22;682;52.502;13.488;2023-01-13T23:43:09;7.70;1.00
1377;DHT22;682;52.502;13.488;2023-01-13T23:45:38;7.70;1.00
1377;DHT22;682;52.502;13.488;2023-01-13T23:48:06;7.70;1.00
1377;DHT22;682;52.502;13.488;2023-01-13T23:51:00;7.70;1.00
1377;DHT22;682;52.502;13.488;2023-01-13T23:53:29;7.80;1.00
1377;DHT22;682;52.502;13.488;2023-01-13T23:56:04;7.70;1.00
